sensor_id;sensor_type;location;lat;lon;timestamp;P1;durP1;ratioP1;P2;durP2;ratioP2
1699;SDS011;847;48.058;7.810;2022-10-31T00:02:01;5.60;;;4.10;;
1699;SDS011;847;48.058;7.810;2022-10-31T00:04:28;6.30;;;4.23;;
1699;SDS011;847;48.058;7.810;2022-10-31T00:06:55;7.87;;;3.93;;
1699;SDS011;847;48.058;7.810;2022-10-31T00:09:21;4.37;;;3.80;;
1699;SDS011;847;48.058;7.810;2022-10-31T00:11:48;5.80;;;4.20;;
1699;SDS011;847;48.058;7.810;2022-10-31T00:14:16;6.07;;;3.50;;
1699;SDS011;847;48.058;7.810;2022-10-31T00:16:43;6.10;;;4.10;;
1699;SDS011;847;48.058;7.810;2022-10-31T00:19:10;6.37;;;3.47;;
1699;SDS011;847;48.058;7.810;2022-10-31T00:21:37;7.40;;;3.80;;
1699;SDS011;847;48.058;7.810;2022-10-31T00:24:04;6.20;;;3.30;;
1699;SDS011;847;48.058;7.810;2022-10-31T00:26:31;11.27;;;4.03;;
1699;SDS011;847;48.058;7.810;2022-10-31T00:28:58;7.67;;;4.60;;
1699;SDS011;847;48.058;7.810;2022-10-31T00:31:27;7.90;;;4.20;;
1699;SDS011;847;48.058;7.810;2022-10-31T00:33:54;4.93;;;3.67;;
1699;SDS011;847;48.058;7.810;2022-10-31T00:36:21;5.20;;;4.10;;
1699;SDS011;847;48.058;7.810;2022-10-31T00:38:48;5.33;;;3.70;;
1699;SDS011;847;48.058;7.810;2022-10-31T00:41:15;10.30;;;4.90;;
1699;SDS011;847;48.058;7.810;2022-10-31T00:43:43;11.13;;;4.53;;
1699;SDS011;847;48.058;7.810;2022-10-31T00:46:11;5.90;;;4.20;;
1699;SDS011;847;48.058;7.810;2022-10-31T00:48:39;5.20;;;3.83;;
1699;SDS011;847;48.058;7.810;2022-10-31T00:51:06;5.10;;;3.80;;
1699;SDS011;847;48.058;7.810;2022-10-31T00:53:33;5.77;;;3.83;;
1699;SDS011;847;48.058;7.810;2022-10-31T00:56:00;6.97;;;3.70;;
1699;SDS011;847;48.058;7.810;2022-10-31T00:58:27;7.43;;;3.50;;
1699;SDS011;847;48.058;7.810;2022-10-31T01:00:54;6.17;;;3.37;;
1699;SDS011;847;48.058;7.810;2022-10-31T01:03:21;6.77;;;3.60;;
1699;SDS011;847;48.058;7.810;2022-10-31T01:05:56;6.60;;;4.40;;
1699;SDS011;847;48.058;7.810;2022-10-31T01:08:24;9.20;;;5.70;;
1699;SDS011;847;48.058;7.810;2022-10-31T01:11:01;7.23;;;3.80;;
1699;SDS011;847;48.058;7.810;2022-10-31T01:13:30;6.90;;;4.03;;
1699;SDS011;847;48.058;7.810;2022-10-31T01:15:58;7.20;;;4.43;;
1699;SDS011;847;48.058;7.810;2022-10-31T01:18:25;4.83;;;3.60;;
1699;SDS011;847;48.058;7.810;2022-10-31T01:20:58;7.80;;;3.70;;
1699;SDS011;847;48.058;7.810;2022-10-31T01:23:26;7.10;;;4.00;;
1699;SDS011;847;48.058;7.810;2022-10-31T01:26:01;10.80;;;3.97;;
1699;SDS011;847;48.058;7.810;2022-10-31T01:28:33;6.60;;;3.57;;
1699;SDS011;847;48.058;7.810;2022-10-31T01:31:01;5.90;;;4.10;;
1699;SDS011;847;48.058;7.810;2022-10-31T01:33:30;4.90;;;3.77;;
1699;SDS011;847;48.058;7.810;2022-10-31T01:35:57;6.63;;;3.80;;
1699;SDS011;847;48.058;7.810;2022-10-31T01:38:25;6.47;;;3.60;;
1699;SDS011;847;48.058;7.810;2022-10-31T01:40:52;5.53;;;3.50;;
1699;SDS011;847;48.058;7.810;2022-10-31T01:43:19;7.80;;;4.50;;
1699;SDS011;847;48.058;7.810;2022-10-31T01:45:48;6.30;;;2.77;;
1699;SDS011;847;48.058;7.810;2022-10-31T01:48:19;4.40;;;3.60;;
1699;SDS011;847;48.058;7.810;2022-10-31T01:50:47;6.70;;;3.80;;
1699;SDS011;847;48.058;7.810;2022-10-31T01:53:18;7.40;;;3.53;;
1699;SDS011;847;48.058;7.810;2022-10-31T01:55:45;5.50;;;3.50;;
1699;SDS011;847;48.058;7.810;2022-10-31T01:58:13;5.10;;;3.50;;
1699;SDS011;847;48.058;7.810;2022-10-31T02:00:45;6.40;;;3.37;;
1699;SDS011;847;48.058;7.810;2022-10-31T02:03:14;6.27;;;3.43;;
1699;SDS011;847;48.058;7.810;2022-10-31T02:05:41;7.13;;;3.37;;
1699;SDS011;847;48.058;7.810;2022-10-31T02:08:10;4.30;;;3.60;;
1699;SDS011;847;48.058;7.810;2022-10-31T02:10:43;6.60;;;3.70;;
1699;SDS011;847;48.058;7.810;2022-10-31T02:13:10;7.50;;;3.13;;
1699;SDS011;847;48.058;7.810;2022-10-31T02:15:39;5.60;;;3.33;;
1699;SDS011;847;48.058;7.810;2022-10-31T02:18:07;9.17;;;4.17;;
1699;SDS011;847;48.058;7.810;2022-10-31T02:20:36;5.47;;;3.07;;
1699;SDS011;847;48.058;7.810;2022-10-31T02:23:27;7.40;;;3.93;;
1699;SDS011;847;48.058;7.810;2022-10-31T02:26:28;7.50;;;4.50;;
1699;SDS011;847;48.058;7.810;2022-10-31T02:29:10;4.90;;;3.87;;
1699;SDS011;847;48.058;7.810;2022-10-31T02:31:54;6.80;;;4.37;;
1699;SDS011;847;48.058;7.810;2022-10-31T02:34:26;6.90;;;4.20;;
1699;SDS011;847;48.058;7.810;2022-10-31T02:37:01;6.57;;;3.83;;
1699;SDS011;847;48.058;7.810;2022-10-31T02:39:36;9.17;;;3.90;;
1699;SDS011;847;48.058;7.810;2022-10-31T02:42:09;4.50;;;3.73;;
1699;SDS011;847;48.058;7.810;2022-10-31T02:44:43;9.50;;;3.47;;
1699;SDS011;847;48.058;7.810;2022-10-31T02:47:15;4.77;;;3.40;;
1699;SDS011;847;48.058;7.810;2022-10-31T02:49:45;6.60;;;3.60;;
1699;SDS011;847;48.058;7.810;2022-10-31T02:52:20;7.60;;;3.50;;
1699;SDS011;847;48.058;7.810;2022-10-31T02:54:50;4.50;;;3.20;;
1699;SDS011;847;48.058;7.810;2022-10-31T02:57:18;8.27;;;3.50;;
1699;SDS011;847;48.058;7.810;2022-10-31T02:59:49;6.63;;;3.90;;
1699;SDS011;847;48.058;7.810;2022-10-31T03:02:26;6.23;;;3.20;;
1699;SDS011;847;48.058;7.810;2022-10-31T03:08:06;5.90;;;3.20;;
1699;SDS011;847;48.058;7.810;2022-10-31T03:10:40;7.83;;;3.20;;
1699;SDS011;847;48.058;7.810;2022-10-31T03:13:17;4.07;;;3.03;;
1699;SDS011;847;48.058;7.810;2022-10-31T03:15:49;5.97;;;3.60;;
1699;SDS011;847;48.058;7.810;2022-10-31T03:18:20;7.93;;;3.57;;
1699;SDS011;847;48.058;7.810;2022-10-31T03:20:53;7.63;;;3.10;;
1699;SDS011;847;48.058;7.810;2022-10-31T03:23:24;7.30;;;3.93;;
1699;SDS011;847;48.058;7.810;2022-10-31T03:25:52;5.77;;;3.40;;
1699;SDS011;847;48.058;7.810;2022-10-31T03:28:22;8.23;;;3.50;;
1699;SDS011;847;48.058;7.810;2022-10-31T03:30:53;6.00;;;3.70;;
1699;SDS011;847;48.058;7.810;2022-10-31T03:33:25;8.10;;;4.23;;
1699;SDS011;847;48.058;7.810;2022-10-31T03:35:55;5.23;;;3.97;;
1699;SDS011;847;48.058;7.810;2022-10-31T03:38:24;6.33;;;3.50;;
1699;SDS011;847;48.058;7.810;2022-10-31T03:40:51;6.20;;;3.70;;
1699;SDS011;847;48.058;7.810;2022-10-31T03:43:23;6.57;;;3.23;;
1699;SDS011;847;48.058;7.810;2022-10-31T03:45:53;9.33;;;3.93;;
1699;SDS011;847;48.058;7.810;2022-10-31T03:48:20;7.00;;;3.67;;
1699;SDS011;847;48.058;7.810;2022-10-31T03:50:51;6.37;;;3.63;;
1699;SDS011;847;48.058;7.810;2022-10-31T03:53:24;7.37;;;4.27;;
1699;SDS011;847;48.058;7.810;2022-10-31T03:55:57;5.30;;;3.63;;
1699;SDS011;847;48.058;7.810;2022-10-31T03:58:29;6.53;;;3.57;;
1699;SDS011;847;48.058;7.810;2022-10-31T04:01:02;5.70;;;3.83;;
1699;SDS011;847;48.058;7.810;2022-10-31T04:03:32;5.00;;;3.47;;
1699;SDS011;847;48.058;7.810;2022-10-31T04:06:05;7.50;;;3.87;;
1699;SDS011;847;48.058;7.810;2022-10-31T04:08:37;5.70;;;3.43;;
1699;SDS011;847;48.058;7.810;2022-10-31T04:11:18;7.30;;;3.97;;
1699;SDS011;847;48.058;7.810;2022-10-31T04:13:49;8.93;;;4.10;;
1699;SDS011;847;48.058;7.810;2022-10-31T04:16:17;6.80;;;4.10;;
1699;SDS011;847;48.058;7.810;2022-10-31T04:18:46;7.10;;;3.53;;
1699;SDS011;847;48.058;7.810;2022-10-31T04:21:15;7.30;;;4.37;;
1699;SDS011;847;48.058;7.810;2022-10-31T04:23:42;7.57;;;3.90;;
1699;SDS011;847;48.058;7.810;2022-10-31T04:26:09;9.80;;;4.00;;
1699;SDS011;847;48.058;7.810;2022-10-31T04:28:38;4.37;;;3.43;;
1699;SDS011;847;48.058;7.810;2022-10-31T04:31:05;4.93;;;3.53;;
1699;SDS011;847;48.058;7.810;2022-10-31T04:33:33;9.70;;;3.80;;
1699;SDS011;847;48.058;7.810;2022-10-31T04:36:00;5.67;;;4.07;;
1699;SDS011;847;48.058;7.810;2022-10-31T04:38:28;5.40;;;4.30;;
1699;SDS011;847;48.058;7.810;2022-10-31T04:40:55;5.70;;;3.77;;
1699;SDS011;847;48.058;7.810;2022-10-31T04:43:23;7.20;;;3.80;;
1699;SDS011;847;48.058;7.810;2022-10-31T04:45:51;8.17;;;3.97;;
1699;SDS011;847;48.058;7.810;2022-10-31T04:48:18;11.80;;;4.17;;
1699;SDS011;847;48.058;7.810;2022-10-31T04:50:45;6.23;;;3.40;;
1699;SDS011;847;48.058;7.810;2022-10-31T04:53:13;6.83;;;3.67;;
1699;SDS011;847;48.058;7.810;2022-10-31T04:55:42;5.27;;;3.53;;
1699;SDS011;847;48.058;7.810;2022-10-31T04:58:09;7.13;;;4.10;;
1699;SDS011;847;48.058;7.810;2022-10-31T05:00:36;8.70;;;4.63;;
1699;SDS011;847;48.058;7.810;2022-10-31T05:03:03;8.30;;;4.40;;
1699;SDS011;847;48.058;7.810;2022-10-31T05:05:30;5.80;;;4.43;;
1699;SDS011;847;48.058;7.810;2022-10-31T05:07:57;6.27;;;3.50;;
1699;SDS011;847;48.058;7.810;2022-10-31T05:10:25;8.27;;;3.63;;
1699;SDS011;847;48.058;7.810;2022-10-31T05:12:56;6.50;;;3.97;;
1699;SDS011;847;48.058;7.810;2022-10-31T05:15:25;9.63;;;4.07;;
1699;SDS011;847;48.058;7.810;2022-10-31T05:17:53;7.83;;;3.87;;
1699;SDS011;847;48.058;7.810;2022-10-31T05:20:22;6.10;;;3.97;;
1699;SDS011;847;48.058;7.810;2022-10-31T05:22:52;6.80;;;4.20;;
1699;SDS011;847;48.058;7.810;2022-10-31T05:25:22;7.73;;;3.80;;
1699;SDS011;847;48.058;7.810;2022-10-31T05:27:51;6.80;;;4.57;;
1699;SDS011;847;48.058;7.810;2022-10-31T05:30:21;8.47;;;3.90;;
1699;SDS011;847;48.058;7.810;2022-10-31T05:32:49;4.80;;;3.20;;
1699;SDS011;847;48.058;7.810;2022-10-31T05:35:18;6.53;;;3.50;;
1699;SDS011;847;48.058;7.810;2022-10-31T05:37:46;6.23;;;4.00;;
1699;SDS011;847;48.058;7.810;2022-10-31T05:40:14;12.03;;;4.30;;
1699;SDS011;847;48.058;7.810;2022-10-31T05:42:42;4.80;;;3.57;;
1699;SDS011;847;48.058;7.810;2022-10-31T05:45:10;6.57;;;3.90;;
1699;SDS011;847;48.058;7.810;2022-10-31T05:47:41;9.63;;;3.67;;
1699;SDS011;847;48.058;7.810;2022-10-31T05:50:08;5.37;;;4.03;;
1699;SDS011;847;48.058;7.810;2022-10-31T05:52:36;4.93;;;4.00;;
1699;SDS011;847;48.058;7.810;2022-10-31T05:55:03;4.77;;;3.20;;
1699;SDS011;847;48.058;7.810;2022-10-31T05:57:31;7.07;;;4.10;;
1699;SDS011;847;48.058;7.810;2022-10-31T05:59:58;11.50;;;4.40;;
1699;SDS011;847;48.058;7.810;2022-10-31T06:02:26;7.43;;;3.73;;
1699;SDS011;847;48.058;7.810;2022-10-31T06:04:58;8.13;;;4.57;;
1699;SDS011;847;48.058;7.810;2022-10-31T06:07:25;7.00;;;4.30;;
1699;SDS011;847;48.058;7.810;2022-10-31T06:09:52;15.87;;;13.93;;
1699;SDS011;847;48.058;7.810;2022-10-31T06:12:19;16.80;;;13.47;;
1699;SDS011;847;48.058;7.810;2022-10-31T06:14:46;10.00;;;7.30;;
1699;SDS011;847;48.058;7.810;2022-10-31T06:17:12;6.20;;;4.10;;
1699;SDS011;847;48.058;7.810;2022-10-31T06:19:40;11.13;;;5.93;;
1699;SDS011;847;48.058;7.810;2022-10-31T06:22:08;5.00;;;4.43;;
1699;SDS011;847;48.058;7.810;2022-10-31T06:24:36;9.50;;;6.07;;
1699;SDS011;847;48.058;7.810;2022-10-31T06:27:03;6.40;;;4.57;;
1699;SDS011;847;48.058;7.810;2022-10-31T06:29:30;13.50;;;4.43;;
1699;SDS011;847;48.058;7.810;2022-10-31T06:31:57;6.67;;;4.20;;
1699;SDS011;847;48.058;7.810;2022-10-31T06:34:24;10.77;;;6.13;;
1699;SDS011;847;48.058;7.810;2022-10-31T06:36:51;6.40;;;4.00;;
1699;SDS011;847;48.058;7.810;2022-10-31T06:39:19;8.57;;;5.07;;
1699;SDS011;847;48.058;7.810;2022-10-31T06:41:46;10.90;;;6.63;;
1699;SDS011;847;48.058;7.810;2022-10-31T06:44:14;9.63;;;6.07;;
1699;SDS011;847;48.058;7.810;2022-10-31T06:46:40;9.20;;;6.87;;
1699;SDS011;847;48.058;7.810;2022-10-31T06:49:09;8.93;;;6.30;;
1699;SDS011;847;48.058;7.810;2022-10-31T06:51:36;10.73;;;6.40;;
1699;SDS011;847;48.058;7.810;2022-10-31T06:54:03;11.40;;;6.27;;
1699;SDS011;847;48.058;7.810;2022-10-31T06:56:31;7.40;;;5.50;;
1699;SDS011;847;48.058;7.810;2022-10-31T06:58:58;7.70;;;5.50;;
1699;SDS011;847;48.058;7.810;2022-10-31T07:01:25;6.67;;;4.60;;
1699;SDS011;847;48.058;7.810;2022-10-31T07:03:52;8.93;;;4.40;;
1699;SDS011;847;48.058;7.810;2022-10-31T07:06:19;8.37;;;5.77;;
1699;SDS011;847;48.058;7.810;2022-10-31T07:08:45;12.67;;;5.10;;
1699;SDS011;847;48.058;7.810;2022-10-31T07:11:13;14.97;;;5.80;;
1699;SDS011;847;48.058;7.810;2022-10-31T07:16:15;10.17;;;5.40;;
1699;SDS011;847;48.058;7.810;2022-10-31T07:18:41;8.10;;;5.30;;
1699;SDS011;847;48.058;7.810;2022-10-31T07:21:08;10.07;;;5.20;;
1699;SDS011;847;48.058;7.810;2022-10-31T07:23:35;8.30;;;4.43;;
1699;SDS011;847;48.058;7.810;2022-10-31T07:26:02;8.60;;;4.50;;
1699;SDS011;847;48.058;7.810;2022-10-31T07:28:28;6.00;;;4.87;;
1699;SDS011;847;48.058;7.810;2022-10-31T07:30:56;12.27;;;5.80;;
1699;SDS011;847;48.058;7.810;2022-10-31T07:33:26;9.43;;;5.10;;
1699;SDS011;847;48.058;7.810;2022-10-31T07:35:53;8.33;;;5.80;;
1699;SDS011;847;48.058;7.810;2022-10-31T07:38:19;7.43;;;4.80;;
1699;SDS011;847;48.058;7.810;2022-10-31T07:40:49;9.93;;;5.97;;
1699;SDS011;847;48.058;7.810;2022-10-31T07:43:16;10.93;;;5.90;;
1699;SDS011;847;48.058;7.810;2022-10-31T07:45:43;8.30;;;5.30;;
1699;SDS011;847;48.058;7.810;2022-10-31T07:48:10;8.03;;;5.20;;
1699;SDS011;847;48.058;7.810;2022-10-31T07:50:38;8.93;;;5.83;;
1699;SDS011;847;48.058;7.810;2022-10-31T07:53:05;8.43;;;5.77;;
1699;SDS011;847;48.058;7.810;2022-10-31T07:55:38;7.43;;;5.20;;
1699;SDS011;847;48.058;7.810;2022-10-31T07:58:05;7.90;;;5.10;;
1699;SDS011;847;48.058;7.810;2022-10-31T08:00:34;6.90;;;5.60;;
1699;SDS011;847;48.058;7.810;2022-10-31T08:03:02;6.90;;;5.67;;
1699;SDS011;847;48.058;7.810;2022-10-31T08:05:30;10.93;;;6.43;;
1699;SDS011;847;48.058;7.810;2022-10-31T08:08:00;11.23;;;6.27;;
1699;SDS011;847;48.058;7.810;2022-10-31T08:10:27;9.73;;;5.80;;
1699;SDS011;847;48.058;7.810;2022-10-31T08:12:54;8.47;;;5.40;;
1699;SDS011;847;48.058;7.810;2022-10-31T08:15:22;8.47;;;6.87;;
1699;SDS011;847;48.058;7.810;2022-10-31T08:17:49;8.97;;;6.00;;
1699;SDS011;847;48.058;7.810;2022-10-31T08:20:16;12.10;;;6.67;;
1699;SDS011;847;48.058;7.810;2022-10-31T08:22:43;12.57;;;6.80;;
1699;SDS011;847;48.058;7.810;2022-10-31T08:25:19;13.60;;;7.33;;
1699;SDS011;847;48.058;7.810;2022-10-31T08:27:48;11.43;;;7.63;;
1699;SDS011;847;48.058;7.810;2022-10-31T08:30:15;8.87;;;7.10;;
1699;SDS011;847;48.058;7.810;2022-10-31T08:32:42;8.00;;;6.70;;
1699;SDS011;847;48.058;7.810;2022-10-31T08:35:09;9.97;;;7.90;;
1699;SDS011;847;48.058;7.810;2022-10-31T08:37:35;10.47;;;7.50;;
1699;SDS011;847;48.058;7.810;2022-10-31T08:40:02;11.47;;;8.20;;
1699;SDS011;847;48.058;7.810;2022-10-31T08:42:32;13.77;;;7.40;;
1699;SDS011;847;48.058;7.810;2022-10-31T08:44:59;11.00;;;7.40;;
1699;SDS011;847;48.058;7.810;2022-10-31T08:47:26;10.40;;;6.67;;
1699;SDS011;847;48.058;7.810;2022-10-31T08:49:53;10.50;;;7.97;;
1699;SDS011;847;48.058;7.810;2022-10-31T08:52:22;16.13;;;7.20;;
1699;SDS011;847;48.058;7.810;2022-10-31T08:54:49;9.07;;;7.17;;
1699;SDS011;847;48.058;7.810;2022-10-31T08:57:16;7.70;;;6.40;;
1699;SDS011;847;48.058;7.810;2022-10-31T08:59:44;12.60;;;6.70;;
1699;SDS011;847;48.058;7.810;2022-10-31T09:02:10;9.87;;;7.03;;
1699;SDS011;847;48.058;7.810;2022-10-31T09:04:37;8.27;;;7.00;;
1699;SDS011;847;48.058;7.810;2022-10-31T09:07:04;12.53;;;7.03;;
1699;SDS011;847;48.058;7.810;2022-10-31T09:09:31;9.57;;;7.30;;
1699;SDS011;847;48.058;7.810;2022-10-31T09:11:58;8.10;;;6.47;;
1699;SDS011;847;48.058;7.810;2022-10-31T09:14:24;10.23;;;5.87;;
1699;SDS011;847;48.058;7.810;2022-10-31T09:16:53;10.10;;;5.80;;
1699;SDS011;847;48.058;7.810;2022-10-31T09:19:20;10.63;;;4.93;;
1699;SDS011;847;48.058;7.810;2022-10-31T09:21:47;8.33;;;4.77;;
1699;SDS011;847;48.058;7.810;2022-10-31T09:24:13;9.40;;;5.13;;
1699;SDS011;847;48.058;7.810;2022-10-31T09:26:40;7.30;;;5.10;;
1699;SDS011;847;48.058;7.810;2022-10-31T09:29:07;8.10;;;4.97;;
1699;SDS011;847;48.058;7.810;2022-10-31T09:31:34;6.03;;;4.70;;
1699;SDS011;847;48.058;7.810;2022-10-31T09:34:03;8.20;;;4.90;;
1699;SDS011;847;48.058;7.810;2022-10-31T09:36:30;18.00;;;5.83;;
1699;SDS011;847;48.058;7.810;2022-10-31T09:38:57;5.40;;;4.90;;
1699;SDS011;847;48.058;7.810;2022-10-31T09:41:24;6.83;;;5.10;;
1699;SDS011;847;48.058;7.810;2022-10-31T09:43:59;6.40;;;5.33;;
1699;SDS011;847;48.058;7.810;2022-10-31T09:46:33;7.53;;;4.70;;
1699;SDS011;847;48.058;7.810;2022-10-31T09:49:28;7.27;;;4.50;;
1699;SDS011;847;48.058;7.810;2022-10-31T09:52:10;9.60;;;5.40;;
1699;SDS011;847;48.058;7.810;2022-10-31T09:54:42;11.27;;;7.90;;
1699;SDS011;847;48.058;7.810;2022-10-31T09:57:13;10.77;;;9.47;;
1699;SDS011;847;48.058;7.810;2022-10-31T09:59:41;13.53;;;9.80;;
1699;SDS011;847;48.058;7.810;2022-10-31T10:02:13;14.87;;;10.40;;
1699;SDS011;847;48.058;7.810;2022-10-31T10:04:46;14.93;;;11.27;;
1699;SDS011;847;48.058;7.810;2022-10-31T10:07:24;14.73;;;9.20;;
1699;SDS011;847;48.058;7.810;2022-10-31T10:09:56;10.40;;;8.57;;
1699;SDS011;847;48.058;7.810;2022-10-31T10:12:28;12.80;;;10.23;;
1699;SDS011;847;48.058;7.810;2022-10-31T10:15:16;13.03;;;9.90;;
1699;SDS011;847;48.058;7.810;2022-10-31T10:17:58;17.67;;;9.77;;
1699;SDS011;847;48.058;7.810;2022-10-31T10:20:35;20.80;;;9.70;;
1699;SDS011;847;48.058;7.810;2022-10-31T10:23:13;12.00;;;9.90;;
1699;SDS011;847;48.058;7.810;2022-10-31T10:25:57;12.00;;;9.30;;
1699;SDS011;847;48.058;7.810;2022-10-31T10:28:28;10.90;;;8.20;;
1699;SDS011;847;48.058;7.810;2022-10-31T10:31:03;12.93;;;8.80;;
1699;SDS011;847;48.058;7.810;2022-10-31T10:33:35;11.17;;;8.17;;
1699;SDS011;847;48.058;7.810;2022-10-31T10:36:08;13.47;;;7.90;;
1699;SDS011;847;48.058;7.810;2022-10-31T10:38:42;9.93;;;6.83;;
1699;SDS011;847;48.058;7.810;2022-10-31T10:41:17;11.60;;;8.20;;
1699;SDS011;847;48.058;7.810;2022-10-31T10:43:45;11.83;;;8.50;;
1699;SDS011;847;48.058;7.810;2022-10-31T10:46:16;13.67;;;7.80;;
1699;SDS011;847;48.058;7.810;2022-10-31T10:49:05;18.70;;;9.73;;
1699;SDS011;847;48.058;7.810;2022-10-31T10:51:40;11.03;;;7.77;;
1699;SDS011;847;48.058;7.810;2022-10-31T10:57:14;16.30;;;9.70;;
1699;SDS011;847;48.058;7.810;2022-10-31T10:59:58;13.50;;;10.40;;
1699;SDS011;847;48.058;7.810;2022-10-31T11:02:30;13.87;;;9.83;;
1699;SDS011;847;48.058;7.810;2022-10-31T11:04:58;13.73;;;10.40;;
1699;SDS011;847;48.058;7.810;2022-10-31T11:07:37;11.77;;;9.60;;
1699;SDS011;847;48.058;7.810;2022-10-31T11:10:05;12.97;;;10.07;;
1699;SDS011;847;48.058;7.810;2022-10-31T11:12:40;18.37;;;11.73;;
1699;SDS011;847;48.058;7.810;2022-10-31T11:15:18;19.67;;;13.33;;
1699;SDS011;847;48.058;7.810;2022-10-31T11:17:48;17.23;;;12.70;;
1699;SDS011;847;48.058;7.810;2022-10-31T11:20:31;15.43;;;13.07;;
1699;SDS011;847;48.058;7.810;2022-10-31T11:23:03;18.03;;;12.50;;
1699;SDS011;847;48.058;7.810;2022-10-31T11:25:40;15.40;;;11.50;;
1699;SDS011;847;48.058;7.810;2022-10-31T11:28:15;18.50;;;11.63;;
1699;SDS011;847;48.058;7.810;2022-10-31T11:30:42;12.90;;;9.83;;
1699;SDS011;847;48.058;7.810;2022-10-31T11:33:14;14.10;;;10.17;;
1699;SDS011;847;48.058;7.810;2022-10-31T11:35:45;14.07;;;10.13;;
1699;SDS011;847;48.058;7.810;2022-10-31T11:38:16;14.07;;;8.77;;
1699;SDS011;847;48.058;7.810;2022-10-31T11:40:51;12.10;;;8.90;;
1699;SDS011;847;48.058;7.810;2022-10-31T11:43:20;16.20;;;8.80;;
1699;SDS011;847;48.058;7.810;2022-10-31T11:45:48;13.27;;;8.10;;
1699;SDS011;847;48.058;7.810;2022-10-31T11:48:16;9.43;;;7.40;;
1699;SDS011;847;48.058;7.810;2022-10-31T11:50:47;10.63;;;6.50;;
1699;SDS011;847;48.058;7.810;2022-10-31T11:53:18;9.67;;;6.40;;
1699;SDS011;847;48.058;7.810;2022-10-31T11:55:46;8.23;;;6.10;;
1699;SDS011;847;48.058;7.810;2022-10-31T11:58:25;11.37;;;6.60;;
1699;SDS011;847;48.058;7.810;2022-10-31T12:00:53;7.37;;;5.40;;
1699;SDS011;847;48.058;7.810;2022-10-31T12:03:31;7.80;;;5.70;;
1699;SDS011;847;48.058;7.810;2022-10-31T12:06:06;7.77;;;5.90;;
1699;SDS011;847;48.058;7.810;2022-10-31T12:08:38;8.87;;;6.20;;
1699;SDS011;847;48.058;7.810;2022-10-31T12:11:09;9.57;;;6.80;;
1699;SDS011;847;48.058;7.810;2022-10-31T12:13:47;8.03;;;5.90;;
1699;SDS011;847;48.058;7.810;2022-10-31T12:16:25;7.23;;;5.93;;
1699;SDS011;847;48.058;7.810;2022-10-31T12:18:58;8.30;;;5.90;;
1699;SDS011;847;48.058;7.810;2022-10-31T12:24:24;9.60;;;7.10;;
1699;SDS011;847;48.058;7.810;2022-10-31T12:27:05;10.70;;;7.00;;
1699;SDS011;847;48.058;7.810;2022-10-31T12:29:45;13.30;;;7.53;;
1699;SDS011;847;48.058;7.810;2022-10-31T12:32:30;16.90;;;8.77;;
1699;SDS011;847;48.058;7.810;2022-10-31T12:35:06;11.30;;;7.90;;
1699;SDS011;847;48.058;7.810;2022-10-31T12:40:53;9.77;;;7.73;;
1699;SDS011;847;48.058;7.810;2022-10-31T12:43:35;9.47;;;7.80;;
1699;SDS011;847;48.058;7.810;2022-10-31T12:46:08;13.20;;;7.77;;
1699;SDS011;847;48.058;7.810;2022-10-31T12:48:48;11.30;;;7.83;;
1699;SDS011;847;48.058;7.810;2022-10-31T12:51:43;12.90;;;6.37;;
1699;SDS011;847;48.058;7.810;2022-10-31T12:54:22;12.60;;;6.43;;
1699;SDS011;847;48.058;7.810;2022-10-31T12:57:05;13.63;;;7.13;;
1699;SDS011;847;48.058;7.810;2022-10-31T12:59:39;10.57;;;8.03;;
1699;SDS011;847;48.058;7.810;2022-10-31T13:02:12;11.97;;;7.20;;
1699;SDS011;847;48.058;7.810;2022-10-31T13:04:45;9.23;;;6.70;;
1699;SDS011;847;48.058;7.810;2022-10-31T13:07:18;12.13;;;7.90;;
1699;SDS011;847;48.058;7.810;2022-10-31T13:09:50;17.83;;;12.37;;
1699;SDS011;847;48.058;7.810;2022-10-31T13:12:24;21.03;;;12.90;;
1699;SDS011;847;48.058;7.810;2022-10-31T13:14:54;14.50;;;12.10;;
1699;SDS011;847;48.058;7.810;2022-10-31T13:17:25;16.40;;;9.87;;
1699;SDS011;847;48.058;7.810;2022-10-31T13:19:58;20.23;;;11.07;;
1699;SDS011;847;48.058;7.810;2022-10-31T13:22:42;15.53;;;12.90;;
1699;SDS011;847;48.058;7.810;2022-10-31T13:25:13;18.93;;;11.93;;
1699;SDS011;847;48.058;7.810;2022-10-31T13:27:44;17.23;;;13.13;;
1699;SDS011;847;48.058;7.810;2022-10-31T13:30:16;14.97;;;10.30;;
1699;SDS011;847;48.058;7.810;2022-10-31T13:32:45;9.13;;;7.43;;
1699;SDS011;847;48.058;7.810;2022-10-31T13:35:16;12.87;;;8.67;;
1699;SDS011;847;48.058;7.810;2022-10-31T13:37:49;14.80;;;6.90;;
1699;SDS011;847;48.058;7.810;2022-10-31T13:40:25;12.83;;;7.03;;
1699;SDS011;847;48.058;7.810;2022-10-31T13:43:05;9.87;;;5.87;;
1699;SDS011;847;48.058;7.810;2022-10-31T13:45:46;13.23;;;7.30;;
1699;SDS011;847;48.058;7.810;2022-10-31T13:48:18;10.53;;;6.97;;
1699;SDS011;847;48.058;7.810;2022-10-31T13:50:59;9.00;;;7.40;;
1699;SDS011;847;48.058;7.810;2022-10-31T13:53:35;8.00;;;6.23;;
1699;SDS011;847;48.058;7.810;2022-10-31T13:56:09;9.53;;;5.83;;
1699;SDS011;847;48.058;7.810;2022-10-31T13:58:43;7.33;;;5.47;;
1699;SDS011;847;48.058;7.810;2022-10-31T14:01:24;7.67;;;6.20;;
1699;SDS011;847;48.058;7.810;2022-10-31T14:03:57;10.13;;;6.40;;
1699;SDS011;847;48.058;7.810;2022-10-31T14:06:36;11.77;;;7.13;;
1699;SDS011;847;48.058;7.810;2022-10-31T14:09:06;9.37;;;6.97;;
1699;SDS011;847;48.058;7.810;2022-10-31T14:11:49;8.00;;;6.67;;
1699;SDS011;847;48.058;7.810;2022-10-31T14:14:18;11.53;;;7.30;;
1699;SDS011;847;48.058;7.810;2022-10-31T14:16:52;10.37;;;6.10;;
1699;SDS011;847;48.058;7.810;2022-10-31T14:19:21;9.57;;;7.30;;
1699;SDS011;847;48.058;7.810;2022-10-31T14:21:48;8.23;;;6.80;;
1699;SDS011;847;48.058;7.810;2022-10-31T14:24:28;10.37;;;5.97;;
1699;SDS011;847;48.058;7.810;2022-10-31T14:26:58;11.77;;;6.60;;
1699;SDS011;847;48.058;7.810;2022-10-31T14:29:28;9.10;;;6.07;;
1699;SDS011;847;48.058;7.810;2022-10-31T14:32:01;11.63;;;6.90;;
1699;SDS011;847;48.058;7.810;2022-10-31T14:34:36;14.63;;;6.70;;
1699;SDS011;847;48.058;7.810;2022-10-31T14:40:11;10.50;;;6.87;;
1699;SDS011;847;48.058;7.810;2022-10-31T14:42:53;9.80;;;6.70;;
1699;SDS011;847;48.058;7.810;2022-10-31T14:45:36;11.83;;;8.23;;
1699;SDS011;847;48.058;7.810;2022-10-31T14:48:12;10.80;;;8.07;;
1699;SDS011;847;48.058;7.810;2022-10-31T14:50:51;10.97;;;8.60;;
1699;SDS011;847;48.058;7.810;2022-10-31T14:53:20;9.80;;;8.30;;
1699;SDS011;847;48.058;7.810;2022-10-31T14:55:52;14.00;;;8.80;;
1699;SDS011;847;48.058;7.810;2022-10-31T14:58:21;11.20;;;8.70;;
1699;SDS011;847;48.058;7.810;2022-10-31T15:00:52;13.43;;;7.73;;
1699;SDS011;847;48.058;7.810;2022-10-31T15:03:23;14.03;;;8.73;;
1699;SDS011;847;48.058;7.810;2022-10-31T15:05:55;9.63;;;7.97;;
1699;SDS011;847;48.058;7.810;2022-10-31T15:08:29;12.90;;;8.83;;
1699;SDS011;847;48.058;7.810;2022-10-31T15:11:02;10.47;;;7.57;;
1699;SDS011;847;48.058;7.810;2022-10-31T15:13:35;12.10;;;8.53;;
1699;SDS011;847;48.058;7.810;2022-10-31T15:16:09;10.63;;;8.37;;
1699;SDS011;847;48.058;7.810;2022-10-31T15:18:38;11.07;;;8.53;;
1699;SDS011;847;48.058;7.810;2022-10-31T15:21:14;19.27;;;14.40;;
1699;SDS011;847;48.058;7.810;2022-10-31T15:23:41;35.83;;;25.27;;
1699;SDS011;847;48.058;7.810;2022-10-31T15:26:11;30.73;;;21.80;;
1699;SDS011;847;48.058;7.810;2022-10-31T15:28:43;29.73;;;19.83;;
1699;SDS011;847;48.058;7.810;2022-10-31T15:31:15;12.37;;;10.17;;
1699;SDS011;847;48.058;7.810;2022-10-31T15:33:47;21.50;;;14.83;;
1699;SDS011;847;48.058;7.810;2022-10-31T15:36:19;18.50;;;11.97;;
1699;SDS011;847;48.058;7.810;2022-10-31T15:38:47;16.37;;;11.63;;
1699;SDS011;847;48.058;7.810;2022-10-31T15:41:19;18.70;;;13.13;;
1699;SDS011;847;48.058;7.810;2022-10-31T15:43:50;15.13;;;11.60;;
1699;SDS011;847;48.058;7.810;2022-10-31T15:46:19;12.60;;;11.30;;
1699;SDS011;847;48.058;7.810;2022-10-31T15:48:46;14.67;;;12.60;;
1699;SDS011;847;48.058;7.810;2022-10-31T15:51:14;19.07;;;11.90;;
1699;SDS011;847;48.058;7.810;2022-10-31T15:53:41;11.07;;;9.83;;
1699;SDS011;847;48.058;7.810;2022-10-31T15:56:13;14.40;;;9.70;;
1699;SDS011;847;48.058;7.810;2022-10-31T15:58:46;13.27;;;10.43;;
1699;SDS011;847;48.058;7.810;2022-10-31T16:01:20;13.20;;;10.20;;
1699;SDS011;847;48.058;7.810;2022-10-31T16:03:57;14.93;;;10.67;;